createdAt,value
2018-12-20T00:00:33.414Z,9.80
2018-12-20T00:03:00.745Z,9.33
2018-12-20T00:05:28.032Z,9.83
2018-12-20T00:07:55.270Z,9.87
2018-12-20T00:10:22.431Z,9.50
2018-12-20T00:12:49.627Z,9.33
2018-12-20T00:15:17.037Z,9.47
2018-12-20T00:17:49.010Z,9.57
2018-12-20T00:20:16.470Z,8.27
2018-12-20T00:22:43.844Z,9.57
2018-12-20T00:25:11.292Z,8.90
2018-12-20T00:27:38.496Z,8.63
2018-12-20T00:30:05.911Z,8.47
2018-12-20T00:32:33.173Z,8.83
2018-12-20T00:35:00.443Z,9.00
2018-12-20T00:37:27.869Z,9.40
2018-12-20T00:39:55.263Z,8.53
2018-12-20T00:42:22.552Z,8.00
2018-12-20T00:44:49.856Z,8.60
2018-12-20T00:47:17.026Z,8.83
2018-12-20T00:49:44.369Z,9.07
2018-12-20T00:52:11.719Z,8.57
2018-12-20T00:54:38.902Z,8.17
2018-12-20T00:57:06.073Z,8.10
2018-12-20T00:59:33.300Z,8.30
2018-12-20T01:02:00.444Z,8.13
2018-12-20T01:04:27.815Z,8.30
2018-12-20T01:06:55.116Z,8.00
2018-12-20T01:09:22.404Z,8.40
2018-12-20T01:11:49.780Z,7.87
2018-12-20T01:14:17.004Z,7.90
2018-12-20T01:16:44.184Z,8.27
2018-12-20T01:19:11.339Z,8.67
2018-12-20T01:21:38.704Z,8.50
2018-12-20T01:24:05.944Z,9.63
2018-12-20T01:26:33.157Z,8.47
2018-12-20T01:29:00.396Z,8.00
2018-12-20T01:31:27.764Z,8.80
2018-12-20T01:33:55.008Z,8.53
2018-12-20T01:36:22.184Z,8.30
2018-12-20T01:38:49.341Z,8.90
2018-12-20T01:41:16.561Z,9.37
2018-12-20T01:43:43.997Z,8.13
2018-12-20T01:46:11.348Z,7.63
2018-12-20T01:48:38.644Z,7.90
2018-12-20T01:51:06.061Z,6.90
2018-12-20T01:53:33.300Z,7.97
2018-12-20T01:56:00.726Z,8.53
2018-12-20T01:58:27.897Z,8.47
2018-12-20T02:00:55.325Z,7.90
2018-12-20T02:03:23.015Z,8.00
2018-12-20T02:05:50.396Z,8.50
2018-12-20T02:08:17.606Z,8.53
2018-12-20T02:10:44.747Z,8.37
2018-12-20T02:13:11.933Z,7.93
2018-12-20T02:15:39.152Z,7.57
2018-12-20T02:18:06.351Z,7.20
2018-12-20T02:20:33.500Z,7.57
2018-12-20T02:23:00.651Z,7.77
2018-12-20T02:25:27.838Z,7.20
2018-12-20T02:27:54.984Z,7.00
2018-12-20T02:30:22.284Z,7.20
2018-12-20T02:32:49.523Z,7.43
2018-12-20T02:35:16.756Z,6.97
2018-12-20T02:37:44.204Z,6.90
2018-12-20T02:40:11.406Z,6.90
2018-12-20T02:42:38.802Z,6.80
2018-12-20T02:45:10.796Z,6.50
2018-12-20T02:47:35.557Z,6.80
2018-12-20T02:50:02.804Z,7.13
2018-12-20T02:52:30.195Z,5.90
2018-12-20T02:54:57.661Z,6.43
2018-12-20T02:57:24.817Z,6.73
2018-12-20T02:59:52.029Z,6.57
2018-12-20T03:02:19.519Z,6.20
2018-12-20T03:04:47.176Z,6.17
2018-12-20T03:07:14.541Z,6.53
2018-12-20T03:09:41.809Z,6.17
2018-12-20T03:12:08.980Z,6.40
2018-12-20T03:14:36.259Z,7.13
2018-12-20T03:17:03.636Z,6.80
2018-12-20T03:19:31.063Z,6.47
2018-12-20T03:21:58.413Z,6.07
2018-12-20T03:24:25.799Z,6.50
2018-12-20T03:26:53.045Z,6.90
2018-12-20T03:29:20.364Z,6.70
2018-12-20T03:31:47.664Z,6.20
2018-12-20T03:34:14.919Z,6.40
2018-12-20T03:36:42.164Z,6.00
2018-12-20T03:39:09.599Z,6.17
2018-12-20T03:41:36.845Z,6.23
2018-12-20T03:44:04.036Z,6.10
2018-12-20T03:46:31.197Z,6.10
2018-12-20T03:48:58.395Z,5.80
2018-12-20T03:51:25.516Z,5.60
2018-12-20T03:53:52.748Z,6.00
2018-12-20T03:56:20.103Z,5.67
2018-12-20T03:58:47.522Z,5.77
2018-12-20T04:01:14.887Z,5.83
2018-12-20T04:03:42.141Z,6.00
2018-12-20T04:06:09.661Z,5.10
2018-12-20T04:08:36.906Z,5.27
2018-12-20T04:11:04.210Z,5.03
2018-12-20T04:13:31.557Z,4.80
2018-12-20T04:15:58.905Z,5.83
2018-12-20T04:18:26.302Z,4.77
2018-12-20T04:20:53.688Z,4.70
2018-12-20T04:23:20.861Z,4.70
2018-12-20T04:25:48.027Z,4.50
2018-12-20T04:28:15.405Z,4.30
2018-12-20T04:30:42.874Z,4.30
2018-12-20T04:33:10.390Z,4.90
2018-12-20T04:35:37.719Z,4.37
2018-12-20T04:38:04.872Z,4.20
2018-12-20T04:40:32.053Z,4.57
2018-12-20T04:42:59.290Z,4.57
2018-12-20T04:45:26.452Z,4.57
2018-12-20T04:47:53.911Z,4.63
2018-12-20T04:50:21.395Z,4.90
2018-12-20T04:52:48.603Z,4.70
2018-12-20T04:55:16.051Z,4.63
2018-12-20T04:57:43.528Z,4.53
2018-12-20T05:00:11.878Z,4.70
2018-12-20T05:02:39.163Z,4.47
2018-12-20T05:05:06.367Z,5.17
2018-12-20T05:07:33.976Z,4.77
2018-12-20T05:10:01.352Z,4.60
2018-12-20T05:12:28.830Z,5.10
2018-12-20T05:14:56.409Z,4.93
2018-12-20T05:17:23.680Z,4.97
2018-12-20T05:19:51.147Z,4.70
2018-12-20T05:22:18.680Z,4.70
2018-12-20T05:24:45.928Z,4.90
2018-12-20T05:27:13.400Z,5.10
2018-12-20T05:29:40.766Z,4.70
2018-12-20T05:32:07.997Z,5.10
2018-12-20T05:34:35.200Z,4.70
2018-12-20T05:37:02.434Z,5.30
2018-12-20T05:39:29.600Z,4.87
2018-12-20T05:41:56.762Z,4.90
2018-12-20T05:44:24.141Z,4.27
2018-12-20T05:46:51.340Z,4.77
2018-12-20T05:49:18.504Z,4.73
2018-12-20T05:51:45.861Z,4.30
2018-12-20T05:54:13.250Z,4.90
2018-12-20T05:56:40.793Z,4.20
2018-12-20T05:59:08.105Z,4.03
2018-12-20T06:01:35.365Z,4.97
2018-12-20T06:04:02.703Z,3.80
2018-12-20T06:06:29.873Z,3.70
2018-12-20T06:08:57.031Z,3.67
2018-12-20T06:11:24.362Z,3.90
2018-12-20T06:13:51.647Z,3.20
2018-12-20T06:16:18.791Z,3.07
2018-12-20T06:18:45.943Z,3.60
2018-12-20T06:21:13.090Z,3.50
2018-12-20T06:23:40.365Z,3.00
2018-12-20T06:26:07.543Z,2.83
2018-12-20T06:28:34.727Z,2.93
2018-12-20T06:31:01.911Z,2.90
2018-12-20T06:33:29.049Z,2.60
2018-12-20T06:35:56.221Z,2.53
2018-12-20T06:38:23.380Z,2.40
2018-12-20T06:40:50.575Z,2.43
2018-12-20T06:43:17.719Z,2.47
2018-12-20T06:45:44.888Z,2.40
2018-12-20T06:48:12.039Z,2.10
2018-12-20T06:50:39.197Z,2.90
2018-12-20T06:53:06.421Z,2.80
2018-12-20T06:55:33.589Z,2.30
2018-12-20T06:58:00.836Z,2.20
2018-12-20T07:00:28.090Z,2.27
2018-12-20T07:02:55.242Z,2.20
2018-12-20T07:05:22.432Z,2.40
2018-12-20T07:07:49.642Z,2.27
2018-12-20T07:10:16.809Z,2.00
2018-12-20T07:12:43.953Z,2.00
2018-12-20T07:15:11.115Z,2.30
2018-12-20T07:17:38.280Z,1.93
2018-12-20T07:20:06.051Z,2.30
2018-12-20T07:22:33.211Z,1.90
2018-12-20T07:25:00.434Z,2.07
2018-12-20T07:27:27.604Z,2.30
2018-12-20T07:29:54.767Z,2.10
2018-12-20T07:32:25.356Z,2.07
2018-12-20T07:34:51.082Z,1.80
2018-12-20T07:37:18.253Z,2.63
2018-12-20T07:39:45.448Z,2.20
2018-12-20T07:42:12.696Z,2.13
2018-12-20T07:44:40.285Z,2.03
2018-12-20T07:47:07.551Z,2.20
2018-12-20T07:49:34.795Z,2.23
2018-12-20T07:52:01.954Z,2.50
2018-12-20T07:54:29.117Z,1.93
2018-12-20T07:56:56.301Z,2.33
2018-12-20T07:59:23.708Z,2.50
2018-12-20T08:01:51.055Z,2.20
2018-12-20T08:04:18.209Z,2.50
2018-12-20T08:06:45.359Z,2.87
2018-12-20T08:09:12.515Z,2.37
2018-12-20T08:11:39.676Z,2.43
2018-12-20T08:14:06.876Z,2.60
2018-12-20T08:16:34.038Z,2.20
2018-12-20T08:19:01.197Z,2.53
2018-12-20T08:21:28.431Z,2.07
2018-12-20T08:23:55.617Z,1.60
2018-12-20T08:26:22.828Z,2.10
2018-12-20T08:28:50.013Z,1.80
2018-12-20T08:31:17.156Z,1.60
2018-12-20T08:33:44.382Z,1.90
2018-12-20T08:36:11.499Z,2.00
2018-12-20T08:38:38.691Z,1.80
2018-12-20T08:41:05.852Z,2.00
2018-12-20T08:43:33.009Z,1.80
2018-12-20T08:46:00.265Z,2.07
2018-12-20T08:48:27.447Z,2.07
2018-12-20T08:50:54.608Z,4.40
2018-12-20T08:53:21.760Z,5.70
2018-12-20T08:55:48.923Z,4.13
2018-12-20T08:58:16.067Z,3.10
2018-12-20T09:00:43.247Z,2.30
2018-12-20T09:03:10.468Z,2.10
2018-12-20T09:05:37.640Z,2.60
2018-12-20T09:08:04.808Z,2.73
2018-12-20T09:10:32.004Z,2.20
2018-12-20T09:12:59.147Z,2.37
2018-12-20T09:15:26.320Z,1.37
2018-12-20T09:17:53.451Z,1.47
2018-12-20T09:20:20.625Z,1.50
2018-12-20T09:22:48.714Z,2.40
2018-12-20T09:25:15.868Z,3.20
2018-12-20T09:27:43.020Z,2.30
2018-12-20T09:30:10.394Z,3.03
2018-12-20T09:32:37.576Z,3.40
2018-12-20T09:35:04.801Z,2.20
2018-12-20T09:37:31.980Z,2.80
2018-12-20T09:39:59.151Z,3.80
2018-12-20T09:42:26.342Z,3.60
2018-12-20T09:44:53.524Z,4.67
2018-12-20T09:47:26.292Z,2.67
2018-12-20T09:49:53.457Z,2.47
2018-12-20T09:52:20.676Z,2.03
2018-12-20T09:54:47.845Z,2.03
2018-12-20T09:57:15.000Z,3.40
2018-12-20T09:59:42.151Z,2.60
2018-12-20T10:02:09.300Z,4.40
2018-12-20T10:04:36.480Z,3.50
2018-12-20T10:07:03.800Z,4.33
2018-12-20T10:09:31.557Z,5.80
2018-12-20T10:11:59.000Z,5.13
2018-12-20T10:14:26.178Z,5.10
2018-12-20T10:16:53.351Z,6.20
2018-12-20T10:19:20.535Z,4.90
2018-12-20T10:21:47.692Z,5.43
2018-12-20T10:24:14.860Z,4.33
2018-12-20T10:26:42.008Z,4.30
2018-12-20T10:29:09.194Z,5.90
2018-12-20T10:31:36.344Z,5.70
2018-12-20T10:34:03.621Z,4.47
2018-12-20T10:36:30.761Z,4.43
2018-12-20T10:38:57.912Z,3.50
2018-12-20T10:41:25.064Z,3.30
2018-12-20T10:43:52.215Z,3.37
2018-12-20T10:46:19.470Z,3.50
2018-12-20T10:48:46.704Z,3.77
2018-12-20T10:51:14.000Z,3.63
2018-12-20T10:53:41.140Z,3.00
2018-12-20T10:56:08.283Z,2.80
2018-12-20T10:58:35.427Z,2.40
2018-12-20T11:01:08.032Z,2.67
2018-12-20T11:03:40.674Z,2.10
2018-12-20T11:07:12.068Z,2.17
2018-12-20T11:09:44.638Z,2.47
2018-12-20T11:12:16.192Z,3.17
2018-12-20T11:14:43.403Z,2.10
2018-12-20T11:17:10.544Z,2.20
2018-12-20T11:19:37.786Z,4.00
2018-12-20T11:22:05.048Z,5.40
2018-12-20T11:24:32.204Z,7.17
2018-12-20T11:26:59.368Z,5.80
2018-12-20T11:29:26.527Z,4.80
2018-12-20T11:31:53.682Z,3.00
2018-12-20T11:34:20.858Z,2.90
2018-12-20T11:36:48.016Z,5.30
2018-12-20T11:39:15.209Z,8.60
2018-12-20T11:41:42.367Z,8.63
2018-12-20T11:44:09.609Z,4.87
2018-12-20T11:46:36.756Z,5.23
2018-12-20T11:49:03.891Z,6.23
2018-12-20T11:51:31.044Z,7.27
2018-12-20T11:53:58.202Z,11.07
2018-12-20T11:56:25.394Z,11.80
2018-12-20T11:58:52.760Z,6.30
2018-12-20T12:01:19.888Z,3.63
2018-12-20T12:03:47.062Z,2.67
2018-12-20T12:06:14.391Z,2.20
2018-12-20T12:08:41.535Z,2.10
2018-12-20T12:11:08.719Z,1.63
2018-12-20T12:13:35.866Z,1.67
2018-12-20T12:16:03.022Z,1.60
2018-12-20T12:18:30.300Z,2.00
2018-12-20T12:20:57.643Z,1.60
2018-12-20T12:23:24.833Z,1.90
2018-12-20T12:25:52.030Z,2.20
2018-12-20T12:28:19.187Z,1.77
2018-12-20T12:30:46.529Z,1.50
2018-12-20T12:33:13.692Z,1.23
2018-12-20T12:35:40.903Z,0.90
2018-12-20T12:38:08.081Z,1.07
2018-12-20T12:40:35.389Z,0.70
2018-12-20T12:43:02.547Z,0.77
2018-12-20T12:45:29.692Z,0.87
2018-12-20T12:48:03.681Z,0.90
2018-12-20T12:50:29.200Z,0.80
2018-12-20T12:52:56.349Z,0.70
2018-12-20T12:55:23.536Z,0.77
2018-12-20T12:57:50.705Z,0.90
2018-12-20T13:00:21.378Z,0.80
2018-12-20T13:02:48.705Z,0.90
2018-12-20T13:05:15.889Z,0.80
2018-12-20T13:07:43.112Z,0.77
2018-12-20T13:10:10.328Z,0.80
2018-12-20T13:12:37.500Z,0.90
2018-12-20T13:15:05.179Z,1.00
2018-12-20T13:17:32.515Z,1.03
2018-12-20T13:19:59.660Z,1.07
2018-12-20T13:22:26.813Z,1.10
2018-12-20T13:24:54.004Z,1.03
2018-12-20T13:27:21.167Z,1.00
2018-12-20T13:29:48.307Z,0.83
2018-12-20T13:32:15.472Z,0.80
2018-12-20T13:34:42.625Z,1.20
2018-12-20T13:37:15.836Z,0.80
2018-12-20T13:39:39.004Z,1.03
2018-12-20T13:42:06.292Z,1.00
2018-12-20T13:44:33.451Z,1.00
2018-12-20T13:47:00.615Z,1.00
2018-12-20T13:49:27.761Z,1.30
2018-12-20T13:51:54.937Z,1.00
2018-12-20T13:54:22.084Z,1.10
2018-12-20T13:56:49.240Z,1.37
2018-12-20T13:59:16.425Z,1.20
2018-12-20T14:01:43.619Z,1.00
2018-12-20T14:04:10.780Z,1.40
2018-12-20T14:06:38.095Z,1.30
2018-12-20T14:09:06.895Z,1.10
2018-12-20T14:11:34.070Z,1.27
2018-12-20T14:14:01.214Z,1.00
2018-12-20T14:16:28.365Z,1.13
2018-12-20T14:18:55.524Z,1.03
2018-12-20T14:21:22.728Z,1.50
2018-12-20T14:23:49.896Z,1.30
2018-12-20T14:26:17.043Z,1.00
2018-12-20T14:28:44.209Z,1.20
2018-12-20T14:31:11.456Z,1.10
2018-12-20T14:33:38.616Z,1.30
2018-12-20T14:36:05.765Z,1.20
2018-12-20T14:38:32.908Z,1.20
2018-12-20T14:41:00.056Z,1.20
2018-12-20T14:43:27.196Z,1.23
2018-12-20T14:45:54.344Z,1.13
2018-12-20T14:48:28.962Z,1.50
2018-12-20T14:50:56.163Z,1.20
2018-12-20T14:53:23.415Z,1.43
2018-12-20T14:55:50.576Z,1.27
2018-12-20T14:58:17.727Z,1.50
2018-12-20T15:00:44.872Z,1.63
2018-12-20T15:03:12.189Z,1.20
2018-12-20T15:05:39.349Z,1.30
2018-12-20T15:08:06.492Z,1.17
2018-12-20T15:10:33.652Z,1.50
2018-12-20T15:13:00.799Z,1.10
2018-12-20T15:15:28.003Z,1.20
2018-12-20T15:17:55.163Z,1.83
2018-12-20T15:20:22.527Z,1.50
2018-12-20T15:22:49.775Z,1.53
2018-12-20T15:25:16.941Z,1.43
2018-12-20T15:27:44.084Z,1.40
2018-12-20T15:30:11.239Z,1.23
2018-12-20T15:32:38.391Z,1.00
2018-12-20T15:35:05.532Z,1.67
2018-12-20T15:37:32.682Z,1.17
2018-12-20T15:39:59.857Z,1.30
2018-12-20T15:42:27.012Z,1.20
2018-12-20T15:44:54.178Z,1.27
2018-12-20T15:47:21.480Z,1.40
2018-12-20T15:49:48.631Z,1.73
2018-12-20T15:52:15.800Z,1.20
2018-12-20T15:54:43.025Z,1.13
2018-12-20T15:57:10.193Z,1.33
2018-12-20T15:59:37.357Z,1.20
2018-12-20T16:02:04.800Z,1.53
2018-12-20T16:04:31.957Z,1.30
2018-12-20T16:06:59.115Z,1.40
2018-12-20T16:09:26.268Z,1.40
2018-12-20T16:11:53.432Z,1.20
2018-12-20T16:14:20.595Z,1.20
2018-12-20T16:16:47.760Z,1.23
2018-12-20T16:19:14.912Z,1.40
2018-12-20T16:21:42.052Z,1.23
2018-12-20T16:24:09.211Z,1.37
2018-12-20T16:26:36.383Z,1.43
2018-12-20T16:29:03.561Z,1.90
2018-12-20T16:31:30.789Z,1.30
2018-12-20T16:33:57.959Z,1.40
2018-12-20T16:36:25.244Z,1.30
2018-12-20T16:38:52.394Z,1.27
2018-12-20T16:41:19.560Z,1.13
2018-12-20T16:43:46.745Z,1.23
2018-12-20T16:46:14.710Z,1.80
2018-12-20T16:48:42.318Z,1.63
2018-12-20T16:51:09.516Z,1.30
2018-12-20T16:53:36.651Z,1.43
2018-12-20T16:56:04.038Z,1.67
2018-12-20T16:58:31.270Z,1.80
2018-12-20T17:00:58.642Z,1.53
2018-12-20T17:03:25.872Z,1.73
2018-12-20T17:05:53.040Z,1.50
2018-12-20T17:08:20.195Z,1.30
2018-12-20T17:10:47.448Z,1.47
2018-12-20T17:13:14.786Z,1.33
2018-12-20T17:15:41.932Z,1.30
2018-12-20T17:18:09.205Z,1.30
2018-12-20T17:20:36.442Z,1.60
2018-12-20T17:23:03.713Z,1.43
2018-12-20T17:25:30.850Z,1.70
2018-12-20T17:27:58.016Z,2.07
2018-12-20T17:30:25.268Z,1.67
2018-12-20T17:32:52.529Z,1.60
2018-12-20T17:35:19.789Z,1.50
2018-12-20T17:37:47.005Z,1.50
2018-12-20T17:40:14.172Z,1.47
2018-12-20T17:42:41.341Z,1.60
2018-12-20T17:45:08.621Z,1.80
2018-12-20T17:47:35.932Z,1.63
2018-12-20T17:50:03.382Z,2.00
2018-12-20T17:52:30.543Z,2.00
2018-12-20T17:54:57.704Z,1.40
2018-12-20T17:57:24.865Z,2.00
2018-12-20T17:59:52.071Z,1.90
2018-12-20T18:02:19.245Z,1.60
2018-12-20T18:04:46.413Z,1.60
2018-12-20T18:07:13.552Z,1.60
2018-12-20T18:09:40.708Z,1.70
2018-12-20T18:12:07.911Z,1.50
2018-12-20T18:14:35.113Z,1.83
2018-12-20T18:17:02.248Z,1.93
2018-12-20T18:19:29.412Z,1.77
2018-12-20T18:21:56.555Z,1.80
2018-12-20T18:24:23.720Z,2.10
2018-12-20T18:26:50.881Z,1.70
2018-12-20T18:29:18.020Z,1.80
2018-12-20T18:31:45.224Z,1.73
2018-12-20T18:34:12.396Z,1.70
2018-12-20T18:36:39.564Z,1.50
2018-12-20T18:39:06.989Z,1.80
2018-12-20T18:41:34.150Z,2.20
2018-12-20T18:44:01.299Z,2.00
2018-12-20T18:46:29.243Z,2.10
2018-12-20T18:48:56.475Z,1.80
2018-12-20T18:51:23.628Z,1.80
2018-12-20T18:53:50.804Z,1.60
2018-12-20T18:56:17.980Z,1.70
2018-12-20T18:58:45.213Z,1.80
2018-12-20T19:01:12.375Z,1.80
2018-12-20T19:03:39.507Z,2.10
2018-12-20T19:06:06.816Z,2.00
2018-12-20T19:08:33.964Z,1.70
2018-12-20T19:11:01.145Z,1.93
2018-12-20T19:13:28.292Z,1.80
2018-12-20T19:15:55.456Z,2.00
2018-12-20T19:18:22.595Z,1.90
2018-12-20T19:20:49.929Z,2.47
2018-12-20T19:23:17.081Z,2.53
2018-12-20T19:25:44.368Z,1.97
2018-12-20T19:28:11.528Z,2.30
2018-12-20T19:30:38.669Z,2.30
2018-12-20T19:33:05.845Z,2.40
2018-12-20T19:35:32.995Z,2.37
2018-12-20T19:38:00.166Z,2.00
2018-12-20T19:40:27.314Z,2.03
2018-12-20T19:42:54.453Z,2.20
2018-12-20T19:45:21.656Z,3.23
2018-12-20T19:47:48.816Z,2.83
2018-12-20T19:50:16.079Z,2.63
2018-12-20T19:52:43.221Z,2.90
2018-12-20T19:55:10.392Z,2.70
2018-12-20T19:57:37.730Z,2.80
2018-12-20T20:00:06.624Z,2.90
2018-12-20T20:02:33.877Z,3.17
2018-12-20T20:05:01.143Z,2.53
2018-12-20T20:07:28.306Z,2.47
2018-12-20T20:09:55.548Z,2.80
2018-12-20T20:12:22.780Z,2.50
2018-12-20T20:14:49.944Z,3.10
2018-12-20T20:17:17.076Z,3.53
2018-12-20T20:19:44.253Z,3.30
2018-12-20T20:22:11.403Z,3.20
2018-12-20T20:24:38.590Z,2.50
2018-12-20T20:27:05.801Z,2.73
2018-12-20T20:29:32.956Z,2.50
2018-12-20T20:32:00.100Z,2.27
2018-12-20T20:34:27.327Z,2.10
2018-12-20T20:36:54.492Z,2.13
2018-12-20T20:39:21.635Z,2.23
2018-12-20T20:41:48.795Z,2.20
2018-12-20T20:44:16.040Z,2.40
2018-12-20T20:46:43.180Z,2.20
2018-12-20T20:49:10.347Z,2.37
2018-12-20T20:51:37.729Z,1.83
2018-12-20T20:54:04.899Z,1.97
2018-12-20T20:56:32.125Z,1.93
2018-12-20T20:58:59.331Z,2.00
2018-12-20T21:01:26.500Z,1.87
2018-12-20T21:03:53.653Z,2.30
2018-12-20T21:06:20.800Z,1.73
2018-12-20T21:08:47.963Z,1.90
2018-12-20T21:11:15.480Z,1.70
2018-12-20T21:13:43.526Z,2.30
2018-12-20T21:16:10.685Z,1.80
2018-12-20T21:18:37.854Z,1.70
2018-12-20T21:21:05.036Z,2.00
2018-12-20T21:23:32.213Z,1.77
2018-12-20T21:25:59.363Z,2.00
2018-12-20T21:28:26.516Z,2.73
2018-12-20T21:30:53.663Z,1.80
2018-12-20T21:33:20.875Z,1.83
2018-12-20T21:35:48.048Z,1.90
2018-12-20T21:38:15.208Z,2.53
2018-12-20T21:40:42.363Z,1.93
2018-12-20T21:43:09.524Z,1.83
2018-12-20T21:45:36.692Z,2.27
2018-12-20T21:48:03.846Z,2.10
2018-12-20T21:50:38.765Z,2.50
2018-12-20T21:53:00.144Z,2.93
2018-12-20T21:55:27.311Z,2.80
2018-12-20T21:57:54.450Z,1.97
2018-12-20T22:00:21.672Z,2.13
2018-12-20T22:02:48.840Z,2.23
2018-12-20T22:05:16.001Z,1.73
2018-12-20T22:07:43.154Z,2.10
2018-12-20T22:10:10.304Z,2.10
2018-12-20T22:12:37.456Z,2.00
2018-12-20T22:15:04.860Z,2.10
2018-12-20T22:17:32.023Z,2.10
2018-12-20T22:19:59.188Z,2.60
2018-12-20T22:22:26.359Z,1.80
2018-12-20T22:24:53.612Z,1.90
2018-12-20T22:27:20.831Z,1.90
2018-12-20T22:29:47.968Z,2.10
2018-12-20T22:32:15.119Z,2.47
2018-12-20T22:34:42.272Z,2.00
2018-12-20T22:37:09.447Z,2.33
2018-12-20T22:39:36.612Z,2.27
2018-12-20T22:42:03.833Z,1.90
2018-12-20T22:44:31.019Z,1.80
2018-12-20T22:46:58.175Z,2.00
2018-12-20T22:49:25.423Z,1.73
2018-12-20T22:51:52.596Z,2.10
2018-12-20T22:54:19.756Z,1.93
2018-12-20T22:56:46.895Z,2.03
2018-12-20T22:59:14.064Z,1.93
2018-12-20T23:01:41.223Z,1.60
2018-12-20T23:04:08.376Z,1.80
2018-12-20T23:06:35.523Z,1.90
2018-12-20T23:09:02.829Z,1.93
2018-12-20T23:11:30.004Z,1.60
2018-12-20T23:13:57.236Z,1.77
2018-12-20T23:16:24.395Z,1.80
2018-12-20T23:18:51.544Z,1.50
2018-12-20T23:21:18.792Z,1.73
2018-12-20T23:23:47.386Z,1.70
2018-12-20T23:26:14.757Z,2.07
2018-12-20T23:28:41.911Z,1.50
2018-12-20T23:31:09.065Z,1.50
2018-12-20T23:33:36.329Z,1.40
2018-12-20T23:36:05.206Z,1.30
2018-12-20T23:38:32.629Z,1.33
2018-12-20T23:40:59.981Z,1.30
2018-12-20T23:43:27.213Z,1.80
2018-12-20T23:45:54.381Z,1.50
2018-12-20T23:48:21.545Z,1.50
2018-12-20T23:50:48.691Z,1.70
2018-12-20T23:53:15.903Z,1.33
2018-12-20T23:55:43.028Z,4.03
2018-12-20T23:58:10.224Z,1.57
